sensor_id;sensor_type;location;lat;lon;timestamp;temperature;humidity
54622;DHT22;40521;53.146;6.556;2023-04-03T00:00:39;0.40;99.90
54622;DHT22;40521;53.146;6.556;2023-04-03T00:03:07;2.70;99.90
54622;DHT22;40521;53.146;6.556;2023-04-03T00:05:33;2.90;99.90
54622;DHT22;40521;53.146;6.556;2023-04-03T00:07:59;2.60;99.90
54622;DHT22;40521;53.146;6.556;2023-04-03T00:10:29;1.10;99.90
54622;DHT22;40521;53.146;6.556;2023-04-03T00:12:57;2.30;99.90
54622;DHT22;40521;53.146;6.556;2023-04-03T00:15:44;1.10;99.90
54622;DHT22;40521;53.146;6.556;2023-04-03T00:18:18;2.30;99.90
54622;DHT22;40521;53.146;6.556;2023-04-03T00:20:51;2.30;99.90
54622;DHT22;40521;53.146;6.556;2023-04-03T00:23:17;3.40;99.90
54622;DHT22;40521;53.146;6.556;2023-04-03T00:25:45;2.30;99.90
54622;DHT22;40521;53.146;6.556;2023-04-03T00:28:14;2.20;99.90
54622;DHT22;40521;53.146;6.556;2023-04-03T00:30:42;2.60;99.90
54622;DHT22;40521;53.146;6.556;2023-04-03T00:33:08;2.40;99.90
54622;DHT22;40521;53.146;6.556;2023-04-03T00:35:39;2.00;99.90
54622;DHT22;40521;53.146;6.556;2023-04-03T00:38:09;2.10;99.90
54622;DHT22;40521;53.146;6.556;2023-04-03T00:40:36;4.70;99.90
54622;DHT22;40521;53.146;6.556;2023-04-03T00:43:21;3.00;99.90
54622;DHT22;40521;53.146;6.556;2023-04-03T00:45:48;0.00;99.90
54622;DHT22;40521;53.146;6.556;2023-04-03T00:48:20;2.00;99.90
54622;DHT22;40521;53.146;6.556;2023-04-03T00:50:46;3.60;99.90
54622;DHT22;40521;53.146;6.556;2023-04-03T00:53:14;4.20;99.90
54622;DHT22;40521;53.146;6.556;2023-04-03T00:55:51;1.90;99.90
54622;DHT22;40521;53.146;6.556;2023-04-03T00:58:18;1.70;99.90
54622;DHT22;40521;53.146;6.556;2023-04-03T01:00:48;2.90;99.90
54622;DHT22;40521;53.146;6.556;2023-04-03T01:03:18;3.00;99.90
54622;DHT22;40521;53.146;6.556;2023-04-03T01:05:55;1.90;99.90
54622;DHT22;40521;53.146;6.556;2023-04-03T01:08:21;1.50;99.90
54622;DHT22;40521;53.146;6.556;2023-04-03T01:10:52;1.60;99.90
54622;DHT22;40521;53.146;6.556;2023-04-03T01:13:24;4.60;99.90
54622;DHT22;40521;53.146;6.556;2023-04-03T01:16:04;1.60;99.90
54622;DHT22;40521;53.146;6.556;2023-04-03T01:18:34;1.60;99.90
54622;DHT22;40521;53.146;6.556;2023-04-03T01:23:32;1.90;99.90
54622;DHT22;40521;53.146;6.556;2023-04-03T01:26:02;1.20;99.90
54622;DHT22;40521;53.146;6.556;2023-04-03T01:28:34;1.90;99.90
54622;DHT22;40521;53.146;6.556;2023-04-03T01:33:49;1.10;99.90
54622;DHT22;40521;53.146;6.556;2023-04-03T01:36:19;1.00;99.90
54622;DHT22;40521;53.146;6.556;2023-04-03T01:38:48;-1.40;99.90
54622;DHT22;40521;53.146;6.556;2023-04-03T01:41:14;2.40;99.90
54622;DHT22;40521;53.146;6.556;2023-04-03T01:43:42;2.00;99.90
54622;DHT22;40521;53.146;6.556;2023-04-03T01:46:08;0.90;99.90
54622;DHT22;40521;53.146;6.556;2023-04-03T01:48:36;1.80;99.90
54622;DHT22;40521;53.146;6.556;2023-04-03T01:51:04;1.60;99.90
54622;DHT22;40521;53.146;6.556;2023-04-03T01:53:32;0.90;99.90
54622;DHT22;40521;53.146;6.556;2023-04-03T01:55:58;2.20;99.90
54622;DHT22;40521;53.146;6.556;2023-04-03T01:58:28;0.90;99.90
54622;DHT22;40521;53.146;6.556;2023-04-03T02:00:56;2.00;99.90
54622;DHT22;40521;53.146;6.556;2023-04-03T02:03:24;2.80;99.90
54622;DHT22;40521;53.146;6.556;2023-04-03T02:05:53;1.60;99.90
54622;DHT22;40521;53.146;6.556;2023-04-03T02:08:18;0.70;99.90
54622;DHT22;40521;53.146;6.556;2023-04-03T02:10:50;1.60;99.90
54622;DHT22;40521;53.146;6.556;2023-04-03T02:13:16;0.60;99.90
54622;DHT22;40521;53.146;6.556;2023-04-03T02:15:41;1.20;99.90
54622;DHT22;40521;53.146;6.556;2023-04-03T02:18:13;2.00;99.90
54622;DHT22;40521;53.146;6.556;2023-04-03T02:20:44;2.40;99.90
54622;DHT22;40521;53.146;6.556;2023-04-03T02:23:10;1.50;99.90
54622;DHT22;40521;53.146;6.556;2023-04-03T02:25:46;4.00;99.90
54622;DHT22;40521;53.146;6.556;2023-04-03T02:28:16;2.30;99.90
54622;DHT22;40521;53.146;6.556;2023-04-03T02:30:45;0.80;99.90
54622;DHT22;40521;53.146;6.556;2023-04-03T02:33:13;1.30;99.90
54622;DHT22;40521;53.146;6.556;2023-04-03T02:35:39;2.90;99.90
54622;DHT22;40521;53.146;6.556;2023-04-03T02:38:15;3.80;99.90
54622;DHT22;40521;53.146;6.556;2023-04-03T02:40:43;2.50;99.90
54622;DHT22;40521;53.146;6.556;2023-04-03T02:43:08;1.40;99.90
54622;DHT22;40521;53.146;6.556;2023-04-03T02:45:35;1.40;99.90
54622;DHT22;40521;53.146;6.556;2023-04-03T02:48:01;0.60;99.90
54622;DHT22;40521;53.146;6.556;2023-04-03T02:50:26;0.30;99.90
54622;DHT22;40521;53.146;6.556;2023-04-03T02:52:54;-0.30;99.90
54622;DHT22;40521;53.146;6.556;2023-04-03T02:55:20;0.10;99.90
54622;DHT22;40521;53.146;6.556;2023-04-03T02:57:48;0.40;99.90
54622;DHT22;40521;53.146;6.556;2023-04-03T03:00:19;2.00;99.90
54622;DHT22;40521;53.146;6.556;2023-04-03T03:02:49;0.40;99.90
54622;DHT22;40521;53.146;6.556;2023-04-03T03:05:23;-0.70;99.90
54622;DHT22;40521;53.146;6.556;2023-04-03T03:07:54;0.40;99.90
54622;DHT22;40521;53.146;6.556;2023-04-03T03:10:22;1.80;99.90
54622;DHT22;40521;53.146;6.556;2023-04-03T03:12:51;1.60;99.90
54622;DHT22;40521;53.146;6.556;2023-04-03T03:15:17;-2.60;99.90
54622;DHT22;40521;53.146;6.556;2023-04-03T03:17:45;-0.20;99.90
54622;DHT22;40521;53.146;6.556;2023-04-03T03:20:20;2.10;99.90
54622;DHT22;40521;53.146;6.556;2023-04-03T03:22:50;0.10;99.90
54622;DHT22;40521;53.146;6.556;2023-04-03T03:25:18;0.30;99.90
54622;DHT22;40521;53.146;6.556;2023-04-03T03:27:44;0.80;99.90
54622;DHT22;40521;53.146;6.556;2023-04-03T03:30:11;0.20;99.90
54622;DHT22;40521;53.146;6.556;2023-04-03T03:32:44;-0.40;99.90
54622;DHT22;40521;53.146;6.556;2023-04-03T03:35:09;-2.30;99.90
54622;DHT22;40521;53.146;6.556;2023-04-03T03:37:38;-1.50;99.90
54622;DHT22;40521;53.146;6.556;2023-04-03T03:40:11;1.70;99.90
54622;DHT22;40521;53.146;6.556;2023-04-03T03:42:38;-0.60;99.90
54622;DHT22;40521;53.146;6.556;2023-04-03T03:45:04;-2.70;99.90
54622;DHT22;40521;53.146;6.556;2023-04-03T03:47:32;-0.40;99.90
54622;DHT22;40521;53.146;6.556;2023-04-03T03:49:58;-1.00;99.90
54622;DHT22;40521;53.146;6.556;2023-04-03T03:52:24;-0.80;99.90
54622;DHT22;40521;53.146;6.556;2023-04-03T03:54:50;2.70;99.90
54622;DHT22;40521;53.146;6.556;2023-04-03T03:57:15;-1.10;99.90
54622;DHT22;40521;53.146;6.556;2023-04-03T03:59:41;-0.40;99.90
54622;DHT22;40521;53.146;6.556;2023-04-03T04:02:09;2.10;99.90
54622;DHT22;40521;53.146;6.556;2023-04-03T04:04:38;-0.40;99.90
54622;DHT22;40521;53.146;6.556;2023-04-03T04:07:04;-0.30;99.90
54622;DHT22;40521;53.146;6.556;2023-04-03T04:09:30;-0.10;99.90
54622;DHT22;40521;53.146;6.556;2023-04-03T04:11:58;-0.40;99.90
54622;DHT22;40521;53.146;6.556;2023-04-03T04:14:23;-0.40;99.90
54622;DHT22;40521;53.146;6.556;2023-04-03T04:16:51;-0.40;99.90
54622;DHT22;40521;53.146;6.556;2023-04-03T04:19:22;-0.40;99.90
54622;DHT22;40521;53.146;6.556;2023-04-03T04:21:48;-1.60;99.90
54622;DHT22;40521;53.146;6.556;2023-04-03T04:24:16;-0.40;99.90
54622;DHT22;40521;53.146;6.556;2023-04-03T04:26:42;-0.50;99.90
54622;DHT22;40521;53.146;6.556;2023-04-03T04:29:08;-0.50;99.90
54622;DHT22;40521;53.146;6.556;2023-04-03T04:31:37;-0.60;99.90
54622;DHT22;40521;53.146;6.556;2023-04-03T04:34:03;-0.60;99.90
54622;DHT22;40521;53.146;6.556;2023-04-03T04:36:28;-0.70;99.90
54622;DHT22;40521;53.146;6.556;2023-04-03T04:38:54;-0.70;99.90
54622;DHT22;40521;53.146;6.556;2023-04-03T04:41:22;-0.80;99.90
54622;DHT22;40521;53.146;6.556;2023-04-03T04:43:51;-0.80;99.90
54622;DHT22;40521;53.146;6.556;2023-04-03T04:46:17;-0.90;99.90
54622;DHT22;40521;53.146;6.556;2023-04-03T04:48:45;-0.90;99.90
54622;DHT22;40521;53.146;6.556;2023-04-03T04:51:14;-0.90;99.90
54622;DHT22;40521;53.146;6.556;2023-04-03T04:53:42;-0.90;99.90
54622;DHT22;40521;53.146;6.556;2023-04-03T04:56:10;-0.90;99.90
54622;DHT22;40521;53.146;6.556;2023-04-03T04:58:36;-1.00;99.90
54622;DHT22;40521;53.146;6.556;2023-04-03T05:01:05;-1.00;99.90
54622;DHT22;40521;53.146;6.556;2023-04-03T05:03:33;-1.00;99.90
54622;DHT22;40521;53.146;6.556;2023-04-03T05:06:01;-1.10;99.90
54622;DHT22;40521;53.146;6.556;2023-04-03T05:08:33;-1.00;99.90
54622;DHT22;40521;53.146;6.556;2023-04-03T05:11:06;-1.10;99.90
54622;DHT22;40521;53.146;6.556;2023-04-03T05:13:34;-1.10;99.90
54622;DHT22;40521;53.146;6.556;2023-04-03T05:16:02;-1.10;99.90
54622;DHT22;40521;53.146;6.556;2023-04-03T05:18:28;-1.10;99.90
54622;DHT22;40521;53.146;6.556;2023-04-03T05:20:56;-1.10;99.90
54622;DHT22;40521;53.146;6.556;2023-04-03T05:23:23;-1.20;99.90
54622;DHT22;40521;53.146;6.556;2023-04-03T05:25:51;-1.10;99.90
54622;DHT22;40521;53.146;6.556;2023-04-03T05:28:21;-1.00;99.90
54622;DHT22;40521;53.146;6.556;2023-04-03T05:30:54;-1.00;99.90
54622;DHT22;40521;53.146;6.556;2023-04-03T05:33:23;-2.60;99.90
54622;DHT22;40521;53.146;6.556;2023-04-03T05:35:48;-1.00;99.90
54622;DHT22;40521;53.146;6.556;2023-04-03T05:38:14;-1.00;99.90
54622;DHT22;40521;53.146;6.556;2023-04-03T05:40:40;-1.00;99.90
54622;DHT22;40521;53.146;6.556;2023-04-03T05:43:06;3.00;99.90
54622;DHT22;40521;53.146;6.556;2023-04-03T05:45:32;-1.00;99.90
54622;DHT22;40521;53.146;6.556;2023-04-03T05:48:00;-0.90;99.90
54622;DHT22;40521;53.146;6.556;2023-04-03T05:50:29;-0.70;99.90
54622;DHT22;40521;53.146;6.556;2023-04-03T05:52:56;-0.80;99.90
54622;DHT22;40521;53.146;6.556;2023-04-03T05:55:22;-0.70;99.90
54622;DHT22;40521;53.146;6.556;2023-04-03T05:57:50;0.40;99.90
54622;DHT22;40521;53.146;6.556;2023-04-03T06:00:21;2.00;99.90
54622;DHT22;40521;53.146;6.556;2023-04-03T06:02:52;-0.60;99.90
54622;DHT22;40521;53.146;6.556;2023-04-03T06:05:27;-0.50;99.90
54622;DHT22;40521;53.146;6.556;2023-04-03T06:07:53;-0.50;99.90
54622;DHT22;40521;53.146;6.556;2023-04-03T06:10:21;-0.40;99.90
54622;DHT22;40521;53.146;6.556;2023-04-03T06:12:52;-0.30;99.90
54622;DHT22;40521;53.146;6.556;2023-04-03T06:15:20;-0.30;99.90
54622;DHT22;40521;53.146;6.556;2023-04-03T06:17:47;-0.20;99.90
54622;DHT22;40521;53.146;6.556;2023-04-03T06:20:13;-0.10;99.90
54622;DHT22;40521;53.146;6.556;2023-04-03T06:22:38;-0.10;99.90
54622;DHT22;40521;53.146;6.556;2023-04-03T06:25:12;3.60;99.90
54622;DHT22;40521;53.146;6.556;2023-04-03T06:27:37;0.10;99.90
54622;DHT22;40521;53.146;6.556;2023-04-03T06:30:14;3.90;99.90
54622;DHT22;40521;53.146;6.556;2023-04-03T06:32:51;0.30;99.90
54622;DHT22;40521;53.146;6.556;2023-04-03T06:35:19;0.30;99.90
54622;DHT22;40521;53.146;6.556;2023-04-03T06:37:50;2.10;99.90
54622;DHT22;40521;53.146;6.556;2023-04-03T06:40:25;0.40;99.90
54622;DHT22;40521;53.146;6.556;2023-04-03T06:42:51;1.70;99.90
54622;DHT22;40521;53.146;6.556;2023-04-03T06:45:19;0.50;99.90
54622;DHT22;40521;53.146;6.556;2023-04-03T06:47:45;1.30;99.90
54622;DHT22;40521;53.146;6.556;2023-04-03T06:50:16;0.70;99.90
54622;DHT22;40521;53.146;6.556;2023-04-03T06:52:42;0.70;99.90
54622;DHT22;40521;53.146;6.556;2023-04-03T06:55:10;2.10;99.90
54622;DHT22;40521;53.146;6.556;2023-04-03T06:57:36;2.60;99.90
54622;DHT22;40521;53.146;6.556;2023-04-03T07:00:02;1.10;99.90
54622;DHT22;40521;53.146;6.556;2023-04-03T07:02:30;1.00;99.90
54622;DHT22;40521;53.146;6.556;2023-04-03T07:04:58;1.10;99.90
54622;DHT22;40521;53.146;6.556;2023-04-03T07:07:24;1.20;99.90
54622;DHT22;40521;53.146;6.556;2023-04-03T07:09:52;5.50;99.90
54622;DHT22;40521;53.146;6.556;2023-04-03T07:12:18;1.70;99.90
54622;DHT22;40521;53.146;6.556;2023-04-03T07:14:46;2.00;99.90
54622;DHT22;40521;53.146;6.556;2023-04-03T07:17:12;-0.10;99.90
54622;DHT22;40521;53.146;6.556;2023-04-03T07:19:38;1.60;99.90
54622;DHT22;40521;53.146;6.556;2023-04-03T07:22:04;1.80;99.90
54622;DHT22;40521;53.146;6.556;2023-04-03T07:24:29;1.90;99.90
54622;DHT22;40521;53.146;6.556;2023-04-03T07:26:55;2.30;99.90
54622;DHT22;40521;53.146;6.556;2023-04-03T07:29:21;4.00;99.90
54622;DHT22;40521;53.146;6.556;2023-04-03T07:31:47;2.80;99.90
54622;DHT22;40521;53.146;6.556;2023-04-03T07:34:13;4.30;99.90
54622;DHT22;40521;53.146;6.556;2023-04-03T07:36:38;2.70;99.90
54622;DHT22;40521;53.146;6.556;2023-04-03T07:39:06;2.20;99.90
54622;DHT22;40521;53.146;6.556;2023-04-03T07:41:33;2.60;99.90
54622;DHT22;40521;53.146;6.556;2023-04-03T07:43:59;2.30;99.90
54622;DHT22;40521;53.146;6.556;2023-04-03T07:46:24;2.70;99.90
54622;DHT22;40521;53.146;6.556;2023-04-03T07:48:51;2.90;99.90
54622;DHT22;40521;53.146;6.556;2023-04-03T07:51:17;2.50;99.90
54622;DHT22;40521;53.146;6.556;2023-04-03T07:53:42;3.30;99.90
54622;DHT22;40521;53.146;6.556;2023-04-03T07:56:08;3.50;99.90
54622;DHT22;40521;53.146;6.556;2023-04-03T07:58:35;2.60;99.90
54622;DHT22;40521;53.146;6.556;2023-04-03T08:01:01;2.60;99.90
54622;DHT22;40521;53.146;6.556;2023-04-03T08:03:27;2.80;99.90
54622;DHT22;40521;53.146;6.556;2023-04-03T08:05:52;3.10;99.90
54622;DHT22;40521;53.146;6.556;2023-04-03T08:08:20;4.40;99.90
54622;DHT22;40521;53.146;6.556;2023-04-03T08:10:55;2.90;99.90
54622;DHT22;40521;53.146;6.556;2023-04-03T08:13:21;3.10;99.90
54622;DHT22;40521;53.146;6.556;2023-04-03T08:15:49;3.00;99.90
54622;DHT22;40521;53.146;6.556;2023-04-03T08:18:22;3.20;99.90
54622;DHT22;40521;53.146;6.556;2023-04-03T08:20:50;4.80;99.90
54622;DHT22;40521;53.146;6.556;2023-04-03T08:23:19;4.70;99.90
54622;DHT22;40521;53.146;6.556;2023-04-03T08:25:47;1.20;99.90
54622;DHT22;40521;53.146;6.556;2023-04-03T08:28:15;4.90;99.90
54622;DHT22;40521;53.146;6.556;2023-04-03T08:30:41;3.70;99.90
54622;DHT22;40521;53.146;6.556;2023-04-03T08:33:07;4.50;99.90
54622;DHT22;40521;53.146;6.556;2023-04-03T08:35:37;2.30;99.90
54622;DHT22;40521;53.146;6.556;2023-04-03T08:38:05;3.60;99.90
54622;DHT22;40521;53.146;6.556;2023-04-03T08:40:31;2.50;99.90
54622;DHT22;40521;53.146;6.556;2023-04-03T08:43:13;4.20;99.90
54622;DHT22;40521;53.146;6.556;2023-04-03T08:45:49;3.80;99.90
54622;DHT22;40521;53.146;6.556;2023-04-03T08:48:17;3.80;99.90
54622;DHT22;40521;53.146;6.556;2023-04-03T08:50:53;4.00;99.90
54622;DHT22;40521;53.146;6.556;2023-04-03T08:53:21;4.10;99.90
54622;DHT22;40521;53.146;6.556;2023-04-03T08:55:52;2.60;99.90
54622;DHT22;40521;53.146;6.556;2023-04-03T08:58:21;4.60;99.90
54622;DHT22;40521;53.146;6.556;2023-04-03T09:01:00;4.10;99.90
54622;DHT22;40521;53.146;6.556;2023-04-03T09:03:29;4.50;99.90
54622;DHT22;40521;53.146;6.556;2023-04-03T09:06:06;4.10;99.90
54622;DHT22;40521;53.146;6.556;2023-04-03T09:08:33;4.60;99.90
54622;DHT22;40521;53.146;6.556;2023-04-03T09:13:30;4.50;99.90
54622;DHT22;40521;53.146;6.556;2023-04-03T09:15:59;4.50;99.90
54622;DHT22;40521;53.146;6.556;2023-04-03T09:18:31;5.50;99.90
54622;DHT22;40521;53.146;6.556;2023-04-03T09:21:03;4.80;99.90
54622;DHT22;40521;53.146;6.556;2023-04-03T09:23:39;5.10;99.90
54622;DHT22;40521;53.146;6.556;2023-04-03T09:26:13;5.10;99.90
54622;DHT22;40521;53.146;6.556;2023-04-03T09:28:40;5.40;99.90
54622;DHT22;40521;53.146;6.556;2023-04-03T09:31:18;4.90;99.90
54622;DHT22;40521;53.146;6.556;2023-04-03T09:33:45;5.30;99.90
54622;DHT22;40521;53.146;6.556;2023-04-03T09:36:14;5.70;99.90
54622;DHT22;40521;53.146;6.556;2023-04-03T09:39:07;5.30;99.90
54622;DHT22;40521;53.146;6.556;2023-04-03T09:41:35;5.60;99.90
54622;DHT22;40521;53.146;6.556;2023-04-03T09:44:00;5.70;99.90
54622;DHT22;40521;53.146;6.556;2023-04-03T09:46:30;5.50;99.90
54622;DHT22;40521;53.146;6.556;2023-04-03T09:48:58;5.50;99.50
54622;DHT22;40521;53.146;6.556;2023-04-03T09:51:27;5.60;99.70
54622;DHT22;40521;53.146;6.556;2023-04-03T09:53:54;5.70;98.40
54622;DHT22;40521;53.146;6.556;2023-04-03T09:56:29;5.70;99.40
54622;DHT22;40521;53.146;6.556;2023-04-03T10:01:34;5.90;99.20
54622;DHT22;40521;53.146;6.556;2023-04-03T10:06:31;6.00;96.20
54622;DHT22;40521;53.146;6.556;2023-04-03T10:09:00;6.10;97.70
54622;DHT22;40521;53.146;6.556;2023-04-03T10:11:29;6.10;96.60
54622;DHT22;40521;53.146;6.556;2023-04-03T10:13:58;6.20;96.10
54622;DHT22;40521;53.146;6.556;2023-04-03T10:21:48;6.40;94.20
54622;DHT22;40521;53.146;6.556;2023-04-03T10:24:28;6.40;92.90
54622;DHT22;40521;53.146;6.556;2023-04-03T10:26:58;6.50;93.00
54622;DHT22;40521;53.146;6.556;2023-04-03T10:34:31;6.80;90.60
54622;DHT22;40521;53.146;6.556;2023-04-03T10:42:50;6.90;85.30
54622;DHT22;40521;53.146;6.556;2023-04-03T10:45:26;6.90;82.30
54622;DHT22;40521;53.146;6.556;2023-04-03T10:56:19;7.20;82.00
54622;DHT22;40521;53.146;6.556;2023-04-03T10:58:48;5.10;83.50
54622;DHT22;40521;53.146;6.556;2023-04-03T11:01:21;7.40;88.50
54622;DHT22;40521;53.146;6.556;2023-04-03T11:03:49;7.50;74.40
54622;DHT22;40521;53.146;6.556;2023-04-03T11:06:17;7.60;71.20
54622;DHT22;40521;53.146;6.556;2023-04-03T11:11:17;7.40;70.30
54622;DHT22;40521;53.146;6.556;2023-04-03T11:13:50;7.50;73.80
54622;DHT22;40521;53.146;6.556;2023-04-03T11:16:39;7.50;76.00
54622;DHT22;40521;53.146;6.556;2023-04-03T11:19:03;7.50;76.20
54622;DHT22;40521;53.146;6.556;2023-04-03T11:21:34;7.50;68.40
54622;DHT22;40521;53.146;6.556;2023-04-03T11:24:04;7.60;72.00
54622;DHT22;40521;53.146;6.556;2023-04-03T11:26:35;7.80;70.70
54622;DHT22;40521;53.146;6.556;2023-04-03T11:29:03;7.70;70.70
54622;DHT22;40521;53.146;6.556;2023-04-03T11:36:46;7.70;71.30
54622;DHT22;40521;53.146;6.556;2023-04-03T11:39:20;7.80;73.20
54622;DHT22;40521;53.146;6.556;2023-04-03T11:41:48;7.90;70.60
54622;DHT22;40521;53.146;6.556;2023-04-03T11:46:56;8.10;75.00
54622;DHT22;40521;53.146;6.556;2023-04-03T11:52:09;8.30;69.80
54622;DHT22;40521;53.146;6.556;2023-04-03T11:57:18;8.30;69.10
54622;DHT22;40521;53.146;6.556;2023-04-03T11:59:46;8.30;70.30
54622;DHT22;40521;53.146;6.556;2023-04-03T12:07:41;8.40;64.90
54622;DHT22;40521;53.146;6.556;2023-04-03T12:10:14;8.10;65.70
54622;DHT22;40521;53.146;6.556;2023-04-03T12:12:42;8.30;69.90
54622;DHT22;40521;53.146;6.556;2023-04-03T12:15:41;8.50;72.50
54622;DHT22;40521;53.146;6.556;2023-04-03T12:20:54;8.80;66.60
54622;DHT22;40521;53.146;6.556;2023-04-03T12:23:30;9.10;67.80
54622;DHT22;40521;53.146;6.556;2023-04-03T12:26:01;8.80;66.90
54622;DHT22;40521;53.146;6.556;2023-04-03T12:28:29;8.70;64.80
54622;DHT22;40521;53.146;6.556;2023-04-03T12:30:55;8.70;67.70
54622;DHT22;40521;53.146;6.556;2023-04-03T12:33:29;8.70;66.20
54622;DHT22;40521;53.146;6.556;2023-04-03T12:35:58;8.60;65.80
54622;DHT22;40521;53.146;6.556;2023-04-03T12:41:19;8.60;63.90
54622;DHT22;40521;53.146;6.556;2023-04-03T12:46:50;8.80;68.50
54622;DHT22;40521;53.146;6.556;2023-04-03T12:51:47;8.40;63.80
54622;DHT22;40521;53.146;6.556;2023-04-03T12:54:21;8.80;64.80
54622;DHT22;40521;53.146;6.556;2023-04-03T12:56:48;8.80;65.60
54622;DHT22;40521;53.146;6.556;2023-04-03T13:01:42;8.90;66.00
54622;DHT22;40521;53.146;6.556;2023-04-03T13:04:09;8.90;64.50
54622;DHT22;40521;53.146;6.556;2023-04-03T13:06:40;9.00;64.40
54622;DHT22;40521;53.146;6.556;2023-04-03T13:09:06;8.90;64.70
54622;DHT22;40521;53.146;6.556;2023-04-03T13:11:40;8.90;66.80
54622;DHT22;40521;53.146;6.556;2023-04-03T13:14:17;9.00;64.70
54622;DHT22;40521;53.146;6.556;2023-04-03T13:19:19;9.00;66.30
54622;DHT22;40521;53.146;6.556;2023-04-03T13:21:45;8.80;65.40
54622;DHT22;40521;53.146;6.556;2023-04-03T13:24:12;8.80;62.90
54622;DHT22;40521;53.146;6.556;2023-04-03T13:26:38;8.90;63.80
54622;DHT22;40521;53.146;6.556;2023-04-03T13:29:14;8.80;65.50
54622;DHT22;40521;53.146;6.556;2023-04-03T13:31:44;8.80;65.50
54622;DHT22;40521;53.146;6.556;2023-04-03T13:34:11;8.80;65.30
54622;DHT22;40521;53.146;6.556;2023-04-03T13:36:38;8.90;70.20
54622;DHT22;40521;53.146;6.556;2023-04-03T13:39:26;9.00;68.30
54622;DHT22;40521;53.146;6.556;2023-04-03T13:41:52;9.00;66.30
54622;DHT22;40521;53.146;6.556;2023-04-03T13:46:43;9.10;64.20
54622;DHT22;40521;53.146;6.556;2023-04-03T13:51:47;9.00;65.80
54622;DHT22;40521;53.146;6.556;2023-04-03T13:54:18;9.10;67.00
54622;DHT22;40521;53.146;6.556;2023-04-03T13:56:44;9.00;65.50
54622;DHT22;40521;53.146;6.556;2023-04-03T14:01:45;8.90;66.50
54622;DHT22;40521;53.146;6.556;2023-04-03T14:04:29;9.20;62.20
54622;DHT22;40521;53.146;6.556;2023-04-03T14:06:55;9.20;62.30
54622;DHT22;40521;53.146;6.556;2023-04-03T14:09:22;9.00;63.90
54622;DHT22;40521;53.146;6.556;2023-04-03T14:11:48;9.00;64.80
54622;DHT22;40521;53.146;6.556;2023-04-03T14:14:17;8.90;62.30
54622;DHT22;40521;53.146;6.556;2023-04-03T14:16:45;9.00;63.40
54622;DHT22;40521;53.146;6.556;2023-04-03T14:19:16;9.20;60.80
54622;DHT22;40521;53.146;6.556;2023-04-03T14:21:42;9.10;61.00
54622;DHT22;40521;53.146;6.556;2023-04-03T14:24:08;9.20;62.70
54622;DHT22;40521;53.146;6.556;2023-04-03T14:26:34;9.10;64.80
54622;DHT22;40521;53.146;6.556;2023-04-03T14:29:00;9.00;64.00
54622;DHT22;40521;53.146;6.556;2023-04-03T14:31:28;9.10;62.40
54622;DHT22;40521;53.146;6.556;2023-04-03T14:33:54;8.90;65.10
54622;DHT22;40521;53.146;6.556;2023-04-03T14:36:21;8.90;65.80
54622;DHT22;40521;53.146;6.556;2023-04-03T14:38:47;8.90;67.60
54622;DHT22;40521;53.146;6.556;2023-04-03T14:41:13;9.10;69.40
54622;DHT22;40521;53.146;6.556;2023-04-03T14:43:40;9.20;67.90
54622;DHT22;40521;53.146;6.556;2023-04-03T14:46:09;9.20;67.90
54622;DHT22;40521;53.146;6.556;2023-04-03T14:48:36;9.20;67.10
54622;DHT22;40521;53.146;6.556;2023-04-03T14:51:01;9.20;68.40
54622;DHT22;40521;53.146;6.556;2023-04-03T14:53:27;9.10;70.40
54622;DHT22;40521;53.146;6.556;2023-04-03T14:55:55;9.00;71.00
54622;DHT22;40521;53.146;6.556;2023-04-03T14:58:21;9.00;70.80
54622;DHT22;40521;53.146;6.556;2023-04-03T15:00:47;9.10;68.90
54622;DHT22;40521;53.146;6.556;2023-04-03T15:03:20;8.90;69.30
54622;DHT22;40521;53.146;6.556;2023-04-03T15:05:46;8.90;69.60
54622;DHT22;40521;53.146;6.556;2023-04-03T15:08:46;9.00;71.20
54622;DHT22;40521;53.146;6.556;2023-04-03T15:11:06;8.90;68.30
54622;DHT22;40521;53.146;6.556;2023-04-03T15:13:32;9.10;70.90
54622;DHT22;40521;53.146;6.556;2023-04-03T15:16:00;9.20;72.00
54622;DHT22;40521;53.146;6.556;2023-04-03T15:18:26;9.30;68.70
54622;DHT22;40521;53.146;6.556;2023-04-03T15:20:53;9.40;67.30
54622;DHT22;40521;53.146;6.556;2023-04-03T15:23:19;9.30;67.50
54622;DHT22;40521;53.146;6.556;2023-04-03T15:25:45;9.20;68.80
54622;DHT22;40521;53.146;6.556;2023-04-03T15:28:45;9.20;68.10
54622;DHT22;40521;53.146;6.556;2023-04-03T15:31:04;9.30;66.20
54622;DHT22;40521;53.146;6.556;2023-04-03T15:33:30;9.20;67.30
54622;DHT22;40521;53.146;6.556;2023-04-03T15:35:56;9.20;68.30
54622;DHT22;40521;53.146;6.556;2023-04-03T15:38:22;9.20;68.00
54622;DHT22;40521;53.146;6.556;2023-04-03T15:40:47;9.20;67.50
54622;DHT22;40521;53.146;6.556;2023-04-03T15:43:13;9.30;65.70
54622;DHT22;40521;53.146;6.556;2023-04-03T15:45:42;9.20;67.20
54622;DHT22;40521;53.146;6.556;2023-04-03T15:48:08;9.10;68.30
54622;DHT22;40521;53.146;6.556;2023-04-03T15:50:34;9.20;68.60
54622;DHT22;40521;53.146;6.556;2023-04-03T15:53:04;9.20;70.10
54622;DHT22;40521;53.146;6.556;2023-04-03T15:55:42;9.20;68.50
54622;DHT22;40521;53.146;6.556;2023-04-03T15:58:07;9.20;71.80
54622;DHT22;40521;53.146;6.556;2023-04-03T16:00:33;9.10;72.50
54622;DHT22;40521;53.146;6.556;2023-04-03T16:03:10;9.00;69.40
54622;DHT22;40521;53.146;6.556;2023-04-03T16:05:37;9.00;66.50
54622;DHT22;40521;53.146;6.556;2023-04-03T16:08:03;9.00;67.60
54622;DHT22;40521;53.146;6.556;2023-04-03T16:10:30;8.90;67.30
54622;DHT22;40521;53.146;6.556;2023-04-03T16:12:56;8.90;67.40
54622;DHT22;40521;53.146;6.556;2023-04-03T16:15:22;9.10;67.60
54622;DHT22;40521;53.146;6.556;2023-04-03T16:17:48;9.00;66.30
54622;DHT22;40521;53.146;6.556;2023-04-03T16:20:14;8.80;68.70
54622;DHT22;40521;53.146;6.556;2023-04-03T16:22:40;8.70;70.30
54622;DHT22;40521;53.146;6.556;2023-04-03T16:25:06;8.60;64.10
54622;DHT22;40521;53.146;6.556;2023-04-03T16:27:32;8.50;63.70
54622;DHT22;40521;53.146;6.556;2023-04-03T16:29:58;8.60;63.50
54622;DHT22;40521;53.146;6.556;2023-04-03T16:32:24;8.70;65.40
54622;DHT22;40521;53.146;6.556;2023-04-03T16:34:51;8.70;66.00
54622;DHT22;40521;53.146;6.556;2023-04-03T16:37:17;8.80;66.60
54622;DHT22;40521;53.146;6.556;2023-04-03T16:39:43;8.60;68.40
54622;DHT22;40521;53.146;6.556;2023-04-03T16:42:08;8.50;72.50
54622;DHT22;40521;53.146;6.556;2023-04-03T16:44:35;8.40;72.00
54622;DHT22;40521;53.146;6.556;2023-04-03T16:47:03;8.50;69.20
54622;DHT22;40521;53.146;6.556;2023-04-03T16:49:34;8.50;70.60
54622;DHT22;40521;53.146;6.556;2023-04-03T16:52:01;8.40;71.10
54622;DHT22;40521;53.146;6.556;2023-04-03T16:54:28;8.30;69.30
54622;DHT22;40521;53.146;6.556;2023-04-03T16:56:54;7.10;71.80
54622;DHT22;40521;53.146;6.556;2023-04-03T16:59:19;7.50;73.80
54622;DHT22;40521;53.146;6.556;2023-04-03T17:01:45;8.20;76.50
54622;DHT22;40521;53.146;6.556;2023-04-03T17:04:11;8.00;76.90
54622;DHT22;40521;53.146;6.556;2023-04-03T17:06:38;8.00;77.60
54622;DHT22;40521;53.146;6.556;2023-04-03T17:09:06;7.90;78.30
54622;DHT22;40521;53.146;6.556;2023-04-03T17:11:32;7.90;79.10
54622;DHT22;40521;53.146;6.556;2023-04-03T17:13:58;7.90;79.90